createdAt,value
2022-12-11T00:00:47.795Z,100.00
2022-12-11T00:03:16.466Z,100.00
2022-12-11T00:05:44.778Z,100.00
2022-12-11T00:08:12.536Z,100.00
2022-12-11T00:10:39.157Z,100.00
2022-12-11T00:13:05.782Z,100.00
2022-12-11T00:15:32.424Z,100.00
2022-12-11T00:17:59.049Z,100.00
2022-12-11T00:20:25.611Z,100.00
2022-12-11T00:22:52.109Z,100.00
2022-12-11T00:25:18.687Z,100.00
2022-12-11T00:27:47.161Z,100.00
2022-12-11T00:30:14.601Z,100.00
2022-12-11T00:32:41.155Z,100.00
2022-12-11T00:35:08.512Z,100.00
2022-12-11T00:37:35.510Z,100.00
2022-12-11T00:40:02.142Z,100.00
2022-12-11T00:42:28.962Z,100.00
2022-12-11T00:44:56.388Z,100.00
2022-12-11T00:47:22.933Z,100.00
2022-12-11T00:49:50.197Z,100.00
2022-12-11T00:52:17.948Z,100.00
2022-12-11T00:54:44.953Z,100.00
2022-12-11T00:57:11.479Z,100.00
2022-12-11T00:59:38.640Z,100.00
2022-12-11T01:02:05.190Z,100.00
2022-12-11T01:04:31.753Z,100.00
2022-12-11T01:06:58.378Z,100.00
2022-12-11T01:09:43.702Z,100.00
2022-12-11T01:12:10.280Z,100.00
2022-12-11T01:14:36.830Z,100.00
2022-12-11T01:17:03.598Z,100.00
2022-12-11T01:19:30.186Z,100.00
2022-12-11T01:21:56.758Z,100.00
2022-12-11T01:24:23.288Z,100.00
2022-12-11T01:26:49.789Z,100.00
2022-12-11T01:29:16.369Z,100.00
2022-12-11T01:31:42.949Z,100.00
2022-12-11T01:34:09.458Z,100.00
2022-12-11T01:36:36.034Z,100.00
2022-12-11T01:39:02.589Z,100.00
2022-12-11T01:41:29.164Z,100.00
2022-12-11T01:44:15.812Z,100.00
2022-12-11T01:46:43.179Z,100.00
2022-12-11T01:49:12.918Z,100.00
2022-12-11T01:51:45.914Z,100.00
2022-12-11T01:54:14.819Z,100.00
2022-12-11T01:56:43.224Z,100.00
2022-12-11T01:59:11.088Z,100.00
2022-12-11T02:01:45.199Z,100.00
2022-12-11T02:04:15.636Z,100.00
2022-12-11T02:06:45.185Z,100.00
2022-12-11T02:09:18.861Z,100.00
2022-12-11T02:12:03.100Z,100.00
2022-12-11T02:14:32.553Z,100.00
2022-12-11T02:17:06.838Z,100.00
2022-12-11T02:19:48.238Z,100.00
2022-12-11T02:22:28.647Z,100.00
2022-12-11T02:25:09.081Z,100.00
2022-12-11T02:27:45.972Z,100.00
2022-12-11T02:30:16.227Z,100.00
2022-12-11T02:32:53.611Z,100.00
2022-12-11T02:35:30.251Z,100.00
2022-12-11T02:38:02.656Z,100.00
2022-12-11T02:40:32.435Z,100.00
2022-12-11T02:43:03.025Z,100.00
2022-12-11T02:45:31.156Z,100.00
2022-12-11T02:48:00.978Z,100.00
2022-12-11T02:50:28.859Z,100.00
2022-12-11T02:52:57.527Z,100.00
2022-12-11T02:55:26.323Z,100.00
2022-12-11T02:58:15.811Z,100.00
2022-12-11T03:00:42.376Z,100.00
2022-12-11T03:03:08.946Z,100.00
2022-12-11T03:05:35.610Z,100.00
2022-12-11T03:08:02.380Z,100.00
2022-12-11T03:10:29.019Z,100.00
2022-12-11T03:12:58.981Z,100.00
2022-12-11T03:15:41.413Z,100.00
2022-12-11T03:18:49.976Z,100.00
2022-12-11T03:21:34.954Z,100.00
2022-12-11T03:24:48.854Z,100.00
2022-12-11T03:27:36.585Z,100.00
2022-12-11T03:30:11.567Z,100.00
2022-12-11T03:32:49.263Z,100.00
2022-12-11T03:35:36.810Z,100.00
2022-12-11T03:38:08.757Z,100.00
2022-12-11T03:40:36.855Z,100.00
2022-12-11T03:43:04.873Z,100.00
2022-12-11T03:45:33.520Z,100.00
2022-12-11T03:48:02.632Z,100.00
2022-12-11T03:50:32.067Z,100.00
2022-12-11T03:53:00.196Z,100.00
2022-12-11T03:55:28.150Z,100.00
2022-12-11T03:57:54.797Z,100.00
2022-12-11T04:00:21.660Z,100.00
2022-12-11T04:03:13.010Z,100.00
2022-12-11T04:05:45.415Z,100.00
2022-12-11T04:08:12.380Z,100.00
2022-12-11T04:10:40.406Z,100.00
2022-12-11T04:13:07.819Z,100.00
2022-12-11T04:15:34.853Z,100.00
2022-12-11T04:18:30.551Z,100.00
2022-12-11T04:21:15.513Z,100.00
2022-12-11T04:24:00.814Z,100.00
2022-12-11T04:26:27.370Z,100.00
2022-12-11T04:28:54.316Z,100.00
2022-12-11T04:31:22.433Z,100.00
2022-12-11T04:33:49.293Z,100.00
2022-12-11T04:36:15.984Z,100.00
2022-12-11T04:38:42.531Z,100.00
2022-12-11T04:41:12.594Z,100.00
2022-12-11T04:43:39.869Z,100.00
2022-12-11T04:46:12.605Z,100.00
2022-12-11T04:48:40.039Z,100.00
2022-12-11T04:51:07.688Z,100.00
2022-12-11T04:53:35.128Z,100.00
2022-12-11T04:56:01.773Z,100.00
2022-12-11T04:58:28.447Z,100.00
2022-12-11T05:00:54.954Z,100.00
2022-12-11T05:03:21.466Z,100.00
2022-12-11T05:05:52.636Z,100.00
2022-12-11T05:08:20.717Z,100.00
2022-12-11T05:10:58.440Z,100.00
2022-12-11T05:13:25.296Z,100.00
2022-12-11T05:15:51.874Z,100.00
2022-12-11T05:18:18.441Z,100.00
2022-12-11T05:20:45.129Z,100.00
2022-12-11T05:23:11.670Z,100.00
2022-12-11T05:25:38.183Z,100.00
2022-12-11T05:28:04.815Z,100.00
2022-12-11T05:30:32.638Z,100.00
2022-12-11T05:32:59.184Z,100.00
2022-12-11T05:35:25.723Z,100.00
2022-12-11T05:37:52.301Z,100.00
2022-12-11T05:40:18.856Z,100.00
2022-12-11T05:42:45.423Z,100.00
2022-12-11T05:45:12.195Z,100.00
2022-12-11T05:47:39.090Z,100.00
2022-12-11T05:50:05.991Z,100.00
2022-12-11T05:52:33.057Z,100.00
2022-12-11T05:54:59.715Z,100.00
2022-12-11T05:57:26.226Z,100.00
2022-12-11T05:59:52.723Z,100.00
2022-12-11T06:02:19.423Z,100.00
2022-12-11T06:04:46.056Z,100.00
2022-12-11T06:07:14.036Z,100.00
2022-12-11T06:09:40.533Z,100.00
2022-12-11T06:12:07.068Z,100.00
2022-12-11T06:14:33.652Z,100.00
2022-12-11T06:17:01.478Z,100.00
2022-12-11T06:19:31.901Z,100.00
2022-12-11T06:22:01.619Z,100.00
2022-12-11T06:24:28.121Z,100.00
2022-12-11T06:26:54.623Z,100.00
2022-12-11T06:29:21.137Z,100.00
2022-12-11T06:31:47.719Z,100.00
2022-12-11T06:34:14.234Z,100.00
2022-12-11T06:36:40.772Z,100.00
2022-12-11T06:39:07.266Z,100.00
2022-12-11T06:41:33.874Z,100.00
2022-12-11T06:44:00.391Z,100.00
2022-12-11T06:46:26.954Z,100.00
2022-12-11T06:48:53.538Z,100.00
2022-12-11T06:51:22.465Z,100.00
2022-12-11T06:53:53.761Z,100.00
2022-12-11T06:56:21.526Z,100.00
2022-12-11T06:58:48.333Z,100.00
2022-12-11T07:01:20.990Z,100.00
2022-12-11T07:03:48.275Z,100.00
2022-12-11T07:06:14.925Z,100.00
2022-12-11T07:08:41.582Z,100.00
2022-12-11T07:11:14.601Z,100.00
2022-12-11T07:13:42.179Z,100.00
2022-12-11T07:16:11.090Z,100.00
2022-12-11T07:18:42.517Z,100.00
2022-12-11T07:21:11.999Z,100.00
2022-12-11T07:23:39.218Z,100.00
2022-12-11T07:26:09.698Z,100.00
2022-12-11T07:28:36.528Z,100.00
2022-12-11T07:31:14.887Z,100.00
2022-12-11T07:33:42.610Z,100.00
2022-12-11T07:36:11.042Z,100.00
2022-12-11T07:38:37.730Z,100.00
2022-12-11T07:41:06.263Z,100.00
2022-12-11T07:43:33.819Z,100.00
2022-12-11T07:46:05.632Z,100.00
2022-12-11T07:48:32.375Z,100.00
2022-12-11T07:51:15.050Z,100.00
2022-12-11T07:53:48.472Z,100.00
2022-12-11T07:56:16.215Z,100.00
2022-12-11T07:58:43.125Z,100.00
2022-12-11T08:01:24.206Z,100.00
2022-12-11T08:03:50.864Z,100.00
2022-12-11T08:06:18.038Z,100.00
2022-12-11T08:08:44.973Z,100.00
2022-12-11T08:11:14.230Z,100.00
2022-12-11T08:13:41.519Z,100.00
2022-12-11T08:16:10.513Z,100.00
2022-12-11T08:18:37.855Z,100.00
2022-12-11T08:21:08.015Z,100.00
2022-12-11T08:23:34.998Z,100.00
2022-12-11T08:26:10.768Z,100.00
2022-12-11T08:28:37.488Z,100.00
2022-12-11T08:31:05.893Z,100.00
2022-12-11T08:33:32.727Z,100.00
2022-12-11T08:36:02.722Z,100.00
2022-12-11T08:38:29.331Z,100.00
2022-12-11T08:40:55.912Z,100.00
2022-12-11T08:43:22.498Z,100.00
2022-12-11T08:45:49.377Z,100.00
2022-12-11T08:48:16.260Z,100.00
2022-12-11T08:50:43.269Z,100.00
2022-12-11T08:53:09.805Z,100.00
2022-12-11T08:55:36.347Z,100.00
2022-12-11T08:58:03.180Z,100.00
2022-12-11T09:00:29.659Z,100.00
2022-12-11T09:02:56.195Z,100.00
2022-12-11T09:05:22.753Z,100.00
2022-12-11T09:07:49.330Z,100.00
2022-12-11T09:10:15.912Z,100.00
2022-12-11T09:12:42.736Z,100.00
2022-12-11T09:15:09.860Z,100.00
2022-12-11T09:17:36.662Z,100.00
2022-12-11T09:20:04.089Z,100.00
2022-12-11T09:22:32.984Z,100.00
2022-12-11T09:24:59.602Z,100.00
2022-12-11T09:27:26.102Z,100.00
2022-12-11T09:29:52.637Z,100.00
2022-12-11T09:32:19.139Z,100.00
2022-12-11T09:34:45.843Z,100.00
2022-12-11T09:37:12.435Z,100.00
2022-12-11T09:39:38.964Z,100.00
2022-12-11T09:42:15.545Z,100.00
2022-12-11T09:44:53.487Z,100.00
2022-12-11T09:47:42.516Z,100.00
2022-12-11T09:50:09.036Z,100.00
2022-12-11T09:52:58.250Z,100.00
2022-12-11T09:55:29.534Z,100.00
2022-12-11T09:58:25.601Z,100.00
2022-12-11T10:01:07.569Z,100.00
2022-12-11T10:03:55.732Z,100.00
2022-12-11T10:06:34.363Z,100.00
2022-12-11T10:09:08.820Z,100.00
2022-12-11T10:12:01.133Z,100.00
2022-12-11T10:14:33.602Z,100.00
2022-12-11T10:17:07.227Z,100.00
2022-12-11T10:19:34.790Z,100.00
2022-12-11T10:22:02.363Z,100.00
2022-12-11T10:25:09.961Z,100.00
2022-12-11T10:27:34.823Z,100.00
2022-12-11T10:30:24.486Z,100.00
2022-12-11T10:32:52.739Z,100.00
2022-12-11T10:35:31.161Z,100.00
2022-12-11T10:38:11.693Z,100.00
2022-12-11T10:40:42.804Z,100.00
2022-12-11T10:43:09.353Z,100.00
2022-12-11T10:45:36.189Z,100.00
2022-12-11T10:48:13.152Z,100.00
2022-12-11T10:50:40.030Z,100.00
2022-12-11T10:53:06.877Z,100.00
2022-12-11T10:55:45.197Z,100.00
2022-12-11T10:58:18.702Z,100.00
2022-12-11T11:00:45.787Z,100.00
2022-12-11T11:03:24.716Z,100.00
2022-12-11T11:06:22.221Z,100.00
2022-12-11T11:08:54.579Z,100.00
2022-12-11T11:11:27.233Z,100.00
2022-12-11T11:14:13.191Z,100.00
2022-12-11T11:16:42.332Z,100.00
2022-12-11T11:19:19.710Z,100.00
2022-12-11T11:21:52.556Z,100.00
2022-12-11T11:24:34.971Z,100.00
2022-12-11T11:27:13.244Z,100.00
2022-12-11T11:29:41.996Z,100.00
2022-12-11T11:32:20.263Z,100.00
2022-12-11T11:34:46.819Z,100.00
2022-12-11T11:37:30.037Z,100.00
2022-12-11T11:40:04.211Z,100.00
2022-12-11T11:42:52.078Z,100.00
2022-12-11T11:45:33.448Z,100.00
2022-12-11T11:48:15.384Z,100.00
2022-12-11T11:50:46.303Z,100.00
2022-12-11T11:53:21.492Z,100.00
2022-12-11T11:56:12.575Z,100.00
2022-12-11T11:58:44.538Z,100.00
2022-12-11T12:01:18.808Z,100.00
2022-12-11T12:03:47.490Z,100.00
2022-12-11T12:06:34.797Z,100.00
2022-12-11T12:09:14.934Z,100.00
2022-12-11T12:11:49.505Z,100.00
2022-12-11T12:14:51.244Z,100.00
2022-12-11T12:17:42.796Z,100.00
2022-12-11T12:20:29.546Z,100.00
2022-12-11T12:23:07.303Z,100.00
2022-12-11T12:25:53.247Z,100.00
2022-12-11T12:28:31.920Z,100.00
2022-12-11T12:31:23.118Z,100.00
2022-12-11T12:34:26.798Z,100.00
2022-12-11T12:37:17.357Z,100.00
2022-12-11T12:39:52.852Z,100.00
2022-12-11T12:42:53.374Z,100.00
2022-12-11T12:45:32.061Z,100.00
2022-12-11T12:47:58.647Z,100.00
2022-12-11T12:50:29.420Z,100.00
2022-12-11T12:52:56.972Z,100.00
2022-12-11T12:55:27.135Z,100.00
2022-12-11T12:57:57.763Z,100.00
2022-12-11T13:00:34.526Z,100.00
2022-12-11T13:03:13.360Z,100.00
2022-12-11T13:05:43.176Z,100.00
2022-12-11T13:08:11.552Z,100.00
2022-12-11T13:10:41.787Z,100.00
2022-12-11T13:13:31.130Z,100.00
2022-12-11T13:16:24.378Z,100.00
2022-12-11T13:18:51.375Z,100.00
2022-12-11T13:21:32.019Z,100.00
2022-12-11T13:24:13.598Z,100.00
2022-12-11T13:26:40.736Z,100.00
2022-12-11T13:29:37.673Z,100.00
2022-12-11T13:32:10.257Z,100.00
2022-12-11T13:34:40.489Z,100.00
2022-12-11T13:37:20.446Z,100.00
2022-12-11T13:39:47.557Z,100.00
2022-12-11T13:42:55.629Z,100.00
2022-12-11T13:45:29.832Z,100.00
2022-12-11T13:47:58.092Z,100.00
2022-12-11T13:50:29.908Z,100.00
2022-12-11T13:52:58.732Z,100.00
2022-12-11T13:55:31.406Z,100.00
2022-12-11T13:57:58.642Z,100.00
2022-12-11T14:00:28.427Z,100.00
2022-12-11T14:02:57.217Z,100.00
2022-12-11T14:05:24.413Z,100.00
2022-12-11T14:07:55.215Z,100.00
2022-12-11T14:10:27.255Z,100.00
2022-12-11T14:13:02.432Z,100.00
2022-12-11T14:15:31.386Z,100.00
2022-12-11T14:17:59.440Z,100.00
2022-12-11T14:20:32.692Z,100.00
2022-12-11T14:23:17.415Z,100.00
2022-12-11T14:25:53.327Z,100.00
2022-12-11T14:28:21.014Z,100.00
2022-12-11T14:30:51.768Z,100.00
2022-12-11T14:33:22.830Z,100.00
2022-12-11T14:35:50.747Z,100.00
2022-12-11T14:38:23.439Z,100.00
2022-12-11T14:40:55.225Z,100.00
2022-12-11T14:43:31.515Z,100.00
2022-12-11T14:46:07.407Z,99.67
2022-12-11T14:48:44.618Z,99.15
2022-12-11T14:51:14.343Z,99.77
2022-12-11T14:53:46.653Z,99.70
2022-12-11T14:56:23.895Z,99.38
2022-12-11T14:59:19.548Z,98.66
2022-12-11T15:01:56.608Z,98.42
2022-12-11T15:04:28.904Z,98.45
2022-12-11T15:06:55.946Z,98.28
2022-12-11T15:09:37.710Z,98.76
2022-12-11T15:12:12.549Z,99.04
2022-12-11T15:15:00.736Z,98.63
2022-12-11T15:17:30.679Z,98.32
2022-12-11T15:20:07.390Z,98.79
2022-12-11T15:22:35.541Z,99.12
2022-12-11T15:25:02.519Z,98.70
2022-12-11T15:27:39.680Z,98.79
2022-12-11T15:30:26.900Z,98.68
2022-12-11T15:33:03.718Z,98.11
2022-12-11T15:35:30.533Z,98.09
2022-12-11T15:37:58.364Z,97.63
2022-12-11T15:40:26.459Z,97.60
2022-12-11T15:42:54.896Z,98.24
2022-12-11T15:45:24.600Z,97.84
2022-12-11T15:47:52.207Z,98.15
2022-12-11T15:50:23.091Z,97.53
2022-12-11T15:52:50.767Z,97.65
2022-12-11T15:55:18.331Z,97.49
2022-12-11T15:57:52.116Z,97.96
2022-12-11T16:00:20.077Z,97.92
2022-12-11T16:02:46.981Z,97.24
2022-12-11T16:05:14.856Z,97.28
2022-12-11T16:07:41.946Z,97.27
2022-12-11T16:10:14.899Z,97.35
2022-12-11T16:12:42.769Z,97.66
2022-12-11T16:15:11.181Z,96.94
2022-12-11T16:17:38.561Z,97.34
2022-12-11T16:20:06.133Z,96.98
2022-12-11T16:22:32.654Z,97.09
2022-12-11T16:24:59.261Z,97.25
2022-12-11T16:27:25.809Z,97.09
2022-12-11T16:29:52.423Z,97.12
2022-12-11T16:32:19.918Z,97.18
2022-12-11T16:34:46.976Z,97.08
2022-12-11T16:37:14.122Z,97.49
2022-12-11T16:39:42.443Z,97.89
2022-12-11T16:42:08.947Z,97.66
2022-12-11T16:44:39.542Z,97.60
2022-12-11T16:47:09.020Z,97.85
2022-12-11T16:49:35.517Z,97.96
2022-12-11T16:52:02.056Z,98.18
2022-12-11T16:54:28.607Z,98.39
2022-12-11T16:56:55.163Z,98.42
2022-12-11T16:59:21.696Z,98.50
2022-12-11T17:01:50.391Z,98.34
2022-12-11T17:04:17.081Z,98.54
2022-12-11T17:06:43.649Z,98.42
2022-12-11T17:09:11.220Z,98.46
2022-12-11T17:11:37.747Z,98.54
2022-12-11T17:14:04.258Z,98.56
2022-12-11T17:16:31.355Z,98.67
2022-12-11T17:18:58.154Z,98.48
2022-12-11T17:21:24.796Z,98.69
2022-12-11T17:23:51.948Z,98.37
2022-12-11T17:26:18.811Z,98.32
2022-12-11T17:28:45.397Z,98.85
2022-12-11T17:31:15.560Z,98.82
2022-12-11T17:33:42.628Z,98.42
2022-12-11T17:36:12.213Z,98.30
2022-12-11T17:38:38.904Z,98.44
2022-12-11T17:41:08.922Z,98.55
2022-12-11T17:43:35.425Z,98.62
2022-12-11T17:46:02.209Z,98.80
2022-12-11T17:48:28.839Z,98.48
2022-12-11T17:50:55.447Z,98.73
2022-12-11T17:53:23.352Z,98.77
2022-12-11T17:55:51.688Z,98.01
2022-12-11T17:58:21.628Z,98.33
2022-12-11T18:00:51.513Z,98.30
2022-12-11T18:03:18.569Z,98.17
2022-12-11T18:05:47.519Z,98.35
2022-12-11T18:08:15.650Z,98.51
2022-12-11T18:10:42.625Z,98.27
2022-12-11T18:13:09.799Z,98.75
2022-12-11T18:15:36.490Z,98.63
2022-12-11T18:18:03.827Z,98.74
2022-12-11T18:20:31.551Z,98.62
2022-12-11T18:22:58.555Z,98.32
2022-12-11T18:25:25.330Z,98.29
2022-12-11T18:27:52.123Z,98.70
2022-12-11T18:30:18.679Z,99.05
2022-12-11T18:32:45.281Z,98.46
2022-12-11T18:35:12.251Z,98.60
2022-12-11T18:37:39.296Z,99.08
2022-12-11T18:40:07.137Z,99.03
2022-12-11T18:42:34.057Z,98.66
2022-12-11T18:45:01.461Z,99.03
2022-12-11T18:47:28.072Z,99.13
2022-12-11T18:49:54.597Z,98.95
2022-12-11T18:52:21.115Z,99.23
2022-12-11T18:54:47.670Z,99.27
2022-12-11T18:57:16.080Z,99.37
2022-12-11T18:59:42.658Z,99.26
2022-12-11T19:02:11.269Z,99.27
2022-12-11T19:04:37.817Z,98.96
2022-12-11T19:07:04.435Z,98.68
2022-12-11T19:09:35.420Z,98.91
2022-12-11T19:12:05.097Z,98.99
2022-12-11T19:14:31.625Z,98.95
2022-12-11T19:16:58.293Z,98.70
2022-12-11T19:19:24.927Z,98.91
2022-12-11T19:21:51.594Z,99.02
2022-12-11T19:24:21.806Z,99.36
2022-12-11T19:26:48.410Z,99.10
2022-12-11T19:29:32.362Z,98.90
2022-12-11T19:32:01.252Z,98.91
2022-12-11T19:34:27.773Z,99.31
2022-12-11T19:36:54.343Z,99.24
2022-12-11T19:39:20.868Z,99.30
2022-12-11T19:41:47.758Z,99.11
2022-12-11T19:44:14.259Z,99.07
2022-12-11T19:46:41.106Z,99.04
2022-12-11T19:49:08.478Z,99.04
2022-12-11T19:51:41.053Z,98.97
2022-12-11T19:54:11.242Z,99.24
2022-12-11T19:56:38.080Z,99.32
2022-12-11T19:59:07.226Z,99.28
2022-12-11T20:01:36.568Z,99.53
2022-12-11T20:04:14.451Z,99.64
2022-12-11T20:06:43.959Z,99.57
2022-12-11T20:09:12.177Z,99.61
2022-12-11T20:11:40.943Z,99.78
2022-12-11T20:14:07.744Z,99.76
2022-12-11T20:17:02.220Z,99.54
2022-12-11T20:19:20.922Z,100.00
2022-12-11T20:21:47.990Z,100.00
2022-12-11T20:24:14.554Z,100.00
2022-12-11T20:26:41.137Z,100.00
2022-12-11T20:29:08.304Z,100.00
2022-12-11T20:31:36.549Z,100.00
2022-12-11T20:34:04.303Z,100.00
2022-12-11T20:36:31.040Z,100.00
2022-12-11T20:38:57.696Z,100.00
2022-12-11T20:41:25.601Z,100.00
2022-12-11T20:43:55.484Z,100.00
2022-12-11T20:46:25.198Z,100.00
2022-12-11T20:48:52.437Z,100.00
2022-12-11T20:51:25.685Z,100.00
2022-12-11T20:54:01.141Z,100.00
2022-12-11T20:56:30.502Z,100.00
2022-12-11T20:58:58.817Z,100.00
2022-12-11T21:01:28.069Z,100.00
2022-12-11T21:03:54.720Z,100.00
2022-12-11T21:06:31.140Z,100.00
2022-12-11T21:08:59.595Z,100.00
2022-12-11T21:11:26.199Z,100.00
2022-12-11T21:13:52.910Z,100.00
2022-12-11T21:16:20.139Z,100.00
2022-12-11T21:18:46.987Z,100.00
2022-12-11T21:21:14.030Z,100.00
2022-12-11T21:23:40.708Z,100.00
2022-12-11T21:26:07.249Z,100.00
2022-12-11T21:28:35.745Z,100.00
2022-12-11T21:31:05.244Z,100.00
2022-12-11T21:33:31.878Z,100.00
2022-12-11T21:35:59.856Z,100.00
2022-12-11T21:38:27.153Z,100.00
2022-12-11T21:40:54.490Z,100.00
2022-12-11T21:43:21.427Z,100.00
2022-12-11T21:46:04.041Z,100.00
2022-12-11T21:48:31.019Z,100.00
2022-12-11T21:51:16.570Z,100.00
2022-12-11T21:53:43.664Z,100.00
2022-12-11T21:56:12.986Z,100.00
2022-12-11T21:58:41.263Z,100.00
2022-12-11T22:01:37.054Z,100.00
2022-12-11T22:04:04.919Z,100.00
2022-12-11T22:06:31.817Z,100.00
2022-12-11T22:08:58.368Z,100.00
2022-12-11T22:11:28.940Z,100.00
2022-12-11T22:13:56.361Z,100.00
2022-12-11T22:16:23.138Z,99.78
2022-12-11T22:18:50.360Z,100.00
2022-12-11T22:21:17.100Z,100.00
2022-12-11T22:23:44.566Z,99.83
2022-12-11T22:26:23.240Z,99.97
2022-12-11T22:28:50.787Z,99.68
2022-12-11T22:31:20.554Z,99.81
2022-12-11T22:33:50.797Z,99.87
2022-12-11T22:36:20.099Z,100.00
2022-12-11T22:38:47.346Z,100.00
2022-12-11T22:41:24.424Z,100.00
2022-12-11T22:43:51.618Z,100.00
2022-12-11T22:46:20.786Z,99.94
2022-12-11T22:48:47.654Z,100.00
2022-12-11T22:51:14.568Z,100.00
2022-12-11T22:53:41.080Z,100.00
2022-12-11T22:56:09.527Z,99.87
2022-12-11T22:58:36.362Z,99.63
2022-12-11T23:01:07.638Z,99.71
2022-12-11T23:03:34.237Z,99.58
2022-12-11T23:06:05.036Z,99.67
2022-12-11T23:08:31.966Z,99.71
2022-12-11T23:10:58.778Z,99.67
2022-12-11T23:13:25.282Z,99.57
2022-12-11T23:15:51.841Z,99.72
2022-12-11T23:18:18.392Z,99.68
2022-12-11T23:20:44.899Z,99.63
2022-12-11T23:23:11.430Z,99.70
2022-12-11T23:25:38.027Z,99.54
2022-12-11T23:28:04.654Z,99.53
2022-12-11T23:30:31.294Z,99.54
2022-12-11T23:32:57.898Z,99.69
2022-12-11T23:35:24.401Z,99.79
2022-12-11T23:37:50.918Z,100.00
2022-12-11T23:40:17.671Z,100.00
2022-12-11T23:42:44.200Z,100.00
2022-12-11T23:45:11.069Z,100.00
2022-12-11T23:47:37.907Z,100.00
2022-12-11T23:50:04.743Z,99.97
2022-12-11T23:52:31.302Z,99.68
2022-12-11T23:54:57.793Z,99.65
2022-12-11T23:57:24.349Z,99.93
2022-12-11T23:59:50.826Z,99.73
